createdAt,value
2023-01-05T06:03:47.495Z,972.48
2023-01-05T06:04:47.356Z,972.48
2023-01-05T06:05:47.299Z,972.49
2023-01-05T06:06:47.258Z,972.49
2023-01-05T06:07:47.203Z,972.45
2023-01-05T06:08:47.181Z,972.50
2023-01-05T06:09:47.118Z,972.49
2023-01-05T06:10:47.056Z,972.50
2023-01-05T06:11:47.024Z,972.52
2023-01-05T06:12:46.968Z,972.51
2023-01-05T06:13:46.956Z,972.48
2023-01-05T06:14:46.873Z,972.52
2023-01-05T06:15:46.822Z,972.58
2023-01-05T06:16:46.796Z,972.55
2023-01-05T06:17:46.734Z,972.57
2023-01-05T06:18:46.685Z,972.68
2023-01-05T06:19:46.671Z,972.58
2023-01-05T06:20:46.589Z,972.58
2023-01-05T06:21:46.553Z,972.58
2023-01-05T06:22:46.494Z,972.62
2023-01-05T06:23:46.451Z,972.57
2023-01-05T06:24:46.404Z,972.61
2023-01-05T06:25:46.377Z,972.65
2023-01-05T06:26:46.323Z,972.63
2023-01-05T06:27:46.263Z,972.63
2023-01-05T06:28:46.219Z,972.71
2023-01-05T06:29:46.171Z,972.66
2023-01-05T06:30:46.122Z,972.74
2023-01-05T06:31:46.151Z,972.72
2023-01-05T06:32:46.032Z,972.74
2023-01-05T06:33:45.981Z,972.81
2023-01-05T06:34:45.960Z,972.79
2023-01-05T06:35:45.888Z,972.81
2023-01-05T06:36:45.844Z,972.84
2023-01-05T06:37:45.996Z,972.83
2023-01-05T06:38:45.747Z,972.89
2023-01-05T06:39:45.709Z,972.89
2023-01-05T06:40:45.661Z,972.90
2023-01-05T06:41:45.613Z,972.89
2023-01-05T06:42:45.569Z,972.89
2023-01-05T06:43:45.651Z,972.83
2023-01-05T06:44:45.482Z,972.84
2023-01-05T06:45:45.434Z,972.83
2023-01-05T06:46:45.377Z,972.82
2023-01-05T06:47:45.334Z,972.80
2023-01-05T06:48:45.342Z,972.82
2023-01-05T06:49:45.330Z,972.83
2023-01-05T06:50:45.206Z,972.86
2023-01-05T06:51:45.149Z,972.85
2023-01-05T06:52:45.110Z,972.82
2023-01-05T06:53:45.083Z,972.85
2023-01-05T06:54:45.023Z,972.80
2023-01-05T06:55:45.004Z,972.82
2023-01-05T06:56:44.923Z,972.79
2023-01-05T06:57:45.022Z,972.83
2023-01-05T06:58:44.841Z,972.83
2023-01-05T06:59:44.828Z,972.86
2023-01-05T07:00:44.811Z,972.90
2023-01-05T07:01:44.761Z,972.89
2023-01-05T07:02:44.643Z,972.91
2023-01-05T07:03:44.681Z,972.97
2023-01-05T07:04:44.553Z,972.90
2023-01-05T07:05:44.506Z,972.89
2023-01-05T07:06:44.461Z,972.90
2023-01-05T07:07:44.410Z,972.85
2023-01-05T07:08:44.371Z,972.88
2023-01-05T07:09:44.345Z,972.92
2023-01-05T07:10:44.281Z,972.88
2023-01-05T07:11:44.243Z,972.89
2023-01-05T07:12:44.187Z,972.89
2023-01-05T07:13:44.137Z,972.95
2023-01-05T07:14:44.092Z,972.89
2023-01-05T07:15:44.054Z,972.90
2023-01-05T07:16:44.124Z,972.92
2023-01-05T07:17:43.958Z,972.90
2023-01-05T07:18:43.906Z,972.93
2023-01-05T07:19:43.888Z,972.95
2023-01-05T07:20:43.814Z,972.93
2023-01-05T07:21:43.791Z,972.95
2023-01-05T07:22:43.725Z,972.83
2023-01-05T07:23:43.692Z,972.88
2023-01-05T07:24:43.623Z,972.92
2023-01-05T07:25:43.595Z,972.86
2023-01-05T07:26:43.537Z,972.81
2023-01-05T07:27:43.493Z,972.82
2023-01-05T07:28:43.453Z,972.79
2023-01-05T07:29:43.398Z,972.79
2023-01-05T07:30:43.360Z,972.78
2023-01-05T07:31:43.354Z,972.77
2023-01-05T07:32:43.264Z,972.77
2023-01-05T07:33:43.211Z,972.83
2023-01-05T07:34:47.606Z,972.79
2023-01-05T07:35:43.126Z,972.82
2023-01-05T07:36:43.075Z,972.84
2023-01-05T07:37:43.053Z,972.89
2023-01-05T07:38:43.002Z,972.89
2023-01-05T07:39:42.945Z,972.88
2023-01-05T07:40:42.895Z,972.91
2023-01-05T07:41:42.855Z,972.89
2023-01-05T07:42:42.797Z,972.94
2023-01-05T07:43:42.794Z,972.91
2023-01-05T07:44:42.739Z,972.99
2023-01-05T07:45:42.668Z,972.96
2023-01-05T07:46:42.617Z,972.95
2023-01-05T07:47:42.566Z,972.99
2023-01-05T07:48:42.521Z,972.95
2023-01-05T07:49:42.501Z,973.00
2023-01-05T07:50:42.443Z,972.96
2023-01-05T07:51:42.390Z,972.95
2023-01-05T07:52:42.340Z,972.96
2023-01-05T07:53:44.579Z,972.94
2023-01-05T07:54:42.247Z,973.02
2023-01-05T07:55:42.197Z,972.98
2023-01-05T07:56:42.177Z,973.00
2023-01-05T07:57:42.102Z,973.03
2023-01-05T07:58:42.061Z,973.09
2023-01-05T07:59:42.135Z,973.09
2023-01-05T08:00:42.037Z,973.18
2023-01-05T08:01:42.130Z,973.17
2023-01-05T08:02:41.950Z,973.16
2023-01-05T08:03:41.832Z,973.16
2023-01-05T08:04:41.819Z,973.19
2023-01-05T08:05:41.743Z,973.27
2023-01-05T08:06:41.694Z,973.27
2023-01-05T08:07:41.644Z,973.26
2023-01-05T08:08:41.598Z,973.21
2023-01-05T08:09:41.552Z,973.25
2023-01-05T08:10:41.517Z,973.30
2023-01-05T08:11:41.467Z,973.29
2023-01-05T08:12:41.449Z,973.29
2023-01-05T08:13:41.377Z,973.25
2023-01-05T08:14:41.319Z,973.30
2023-01-05T08:15:43.662Z,973.30
2023-01-05T08:16:41.253Z,973.27
2023-01-05T08:17:41.204Z,973.31
2023-01-05T08:18:41.169Z,973.29
2023-01-05T08:19:41.108Z,973.36
2023-01-05T08:20:41.045Z,973.29
2023-01-05T08:21:40.997Z,973.29
2023-01-05T08:22:40.957Z,973.31
2023-01-05T08:23:40.920Z,973.31
2023-01-05T08:24:40.876Z,973.28
2023-01-05T08:25:40.810Z,973.32
2023-01-05T08:26:40.797Z,973.32
2023-01-05T08:27:40.721Z,973.39
2023-01-05T08:28:40.679Z,973.43
2023-01-05T08:29:40.652Z,973.42
2023-01-05T08:30:40.588Z,973.48
2023-01-05T08:31:40.605Z,973.51
2023-01-05T08:32:40.488Z,973.56
2023-01-05T08:33:40.447Z,973.57
2023-01-05T08:34:40.395Z,973.56
2023-01-05T08:35:40.364Z,973.56
2023-01-05T08:36:40.335Z,973.56
2023-01-05T08:37:40.323Z,973.56
2023-01-05T08:38:40.213Z,973.48
2023-01-05T08:39:40.175Z,973.51
2023-01-05T08:40:40.123Z,973.54
2023-01-05T08:41:40.081Z,973.52
2023-01-05T08:42:40.036Z,973.46
2023-01-05T08:43:40.007Z,973.51
2023-01-05T08:44:39.935Z,973.58
2023-01-05T08:45:39.940Z,973.57
2023-01-05T08:46:39.843Z,973.63
2023-01-05T08:47:39.807Z,973.62
2023-01-05T08:48:39.757Z,973.65
2023-01-05T08:49:39.726Z,973.61
2023-01-05T08:50:39.666Z,973.61
2023-01-05T08:51:39.619Z,973.72
2023-01-05T08:52:39.569Z,973.75
2023-01-05T08:53:40.566Z,973.72
2023-01-05T08:54:39.478Z,973.69
2023-01-05T08:55:39.455Z,973.73
2023-01-05T08:56:39.685Z,973.68
2023-01-05T08:57:39.376Z,973.64
2023-01-05T08:58:39.299Z,973.64
2023-01-05T08:59:39.247Z,973.62
2023-01-05T09:00:39.209Z,973.59
2023-01-05T09:01:39.190Z,973.63
2023-01-05T09:02:39.238Z,973.63
2023-01-05T09:03:39.191Z,973.69
2023-01-05T09:04:39.043Z,973.61
2023-01-05T09:05:38.974Z,973.63
2023-01-05T09:06:38.925Z,973.57
2023-01-05T09:07:38.875Z,973.63
2023-01-05T09:08:38.838Z,973.58
2023-01-05T09:09:38.802Z,973.58
2023-01-05T09:10:38.762Z,973.62
2023-01-05T09:11:38.713Z,973.65
2023-01-05T09:12:38.651Z,973.62
2023-01-05T09:13:38.604Z,973.57
2023-01-05T09:14:38.560Z,973.48
2023-01-05T09:15:38.514Z,973.40
2023-01-05T09:17:08.676Z,973.38
2023-01-05T09:17:38.547Z,973.35
2023-01-05T09:18:38.376Z,973.34
2023-01-05T09:19:38.330Z,973.39
2023-01-05T09:20:40.129Z,973.41
2023-01-05T09:21:38.233Z,973.47
2023-01-05T09:22:38.194Z,973.47
2023-01-05T09:23:38.188Z,973.51
2023-01-05T09:24:38.098Z,973.59
2023-01-05T09:25:38.059Z,973.66
2023-01-05T09:26:38.011Z,973.60
2023-01-05T09:27:37.962Z,973.59
2023-01-05T09:28:37.929Z,973.66
2023-01-05T09:29:37.918Z,973.64
2023-01-05T09:30:44.279Z,973.65
2023-01-05T09:31:37.840Z,973.69
2023-01-05T09:32:37.731Z,973.73
2023-01-05T09:33:37.688Z,973.81
2023-01-05T09:34:37.647Z,973.69
2023-01-05T09:35:37.621Z,973.76
2023-01-05T09:36:37.580Z,973.81
2023-01-05T09:37:37.521Z,973.86
2023-01-05T09:38:39.707Z,973.75
2023-01-05T09:39:37.411Z,973.80
2023-01-05T09:40:37.370Z,973.83
2023-01-05T09:41:37.326Z,973.87
2023-01-05T09:42:37.285Z,973.86
2023-01-05T09:43:37.252Z,973.81
2023-01-05T09:44:37.194Z,973.81
2023-01-05T09:45:37.144Z,973.81
2023-01-05T09:46:37.153Z,973.81
2023-01-05T09:47:37.052Z,973.83
2023-01-05T09:48:37.011Z,973.80
2023-01-05T09:49:37.165Z,973.86
2023-01-05T09:50:36.921Z,973.89
2023-01-05T09:51:36.872Z,973.96
2023-01-05T09:52:38.557Z,973.95
2023-01-05T09:53:36.777Z,973.96
2023-01-05T09:54:36.736Z,973.93
2023-01-05T09:55:36.715Z,973.98
2023-01-05T09:57:36.606Z,974.13
2023-01-05T09:58:36.568Z,974.04
2023-01-05T09:59:36.515Z,973.98
2023-01-05T10:00:36.467Z,973.93
2023-01-05T10:01:36.455Z,973.94
2023-01-05T10:02:36.400Z,973.86
2023-01-05T10:04:02.869Z,973.91
2023-01-05T10:04:36.413Z,973.95
2023-01-05T10:05:36.394Z,973.92
2023-01-05T10:06:36.222Z,974.00
2023-01-05T10:07:36.152Z,973.96
2023-01-05T10:08:36.101Z,973.99
2023-01-05T10:09:36.058Z,973.97
2023-01-05T10:10:36.049Z,973.99
2023-01-05T10:11:35.984Z,974.08
2023-01-05T10:12:35.923Z,974.02
2023-01-05T10:13:35.879Z,974.00
2023-01-05T10:14:35.836Z,973.96
2023-01-05T10:15:35.816Z,973.95
2023-01-05T10:16:35.821Z,974.03
2023-01-05T10:17:44.349Z,973.91
2023-01-05T10:18:35.678Z,973.95
2023-01-05T10:19:35.622Z,973.90
2023-01-05T10:20:35.635Z,973.81
2023-01-05T10:21:35.556Z,973.83
2023-01-05T10:22:38.796Z,973.89
2023-01-05T10:23:35.459Z,973.87
2023-01-05T10:24:35.388Z,973.82
2023-01-05T10:25:35.344Z,973.85
2023-01-05T10:26:58.187Z,973.83
2023-01-05T10:27:35.264Z,973.81
2023-01-05T10:28:35.212Z,973.76
2023-01-05T10:29:35.168Z,973.84
2023-01-05T10:30:35.123Z,973.76
2023-01-05T10:31:35.126Z,973.74
2023-01-05T10:32:49.055Z,973.82
2023-01-05T10:33:41.524Z,973.81
2023-01-05T10:34:34.952Z,973.77
2023-01-05T10:35:59.481Z,973.78
2023-01-05T10:37:06.609Z,973.74
2023-01-05T10:37:34.821Z,973.70
2023-01-05T10:38:34.786Z,973.65
2023-01-05T10:39:34.737Z,973.62
2023-01-05T10:40:34.688Z,973.66
2023-01-05T10:41:34.660Z,973.59
2023-01-05T10:42:34.628Z,973.57
2023-01-05T10:43:34.562Z,973.52
2023-01-05T10:44:34.520Z,973.55
2023-01-05T10:45:34.472Z,973.50
2023-01-05T10:46:41.656Z,973.55
2023-01-05T10:47:34.416Z,973.58
2023-01-05T10:48:34.368Z,973.48
2023-01-05T10:49:34.297Z,973.54
2023-01-05T10:50:34.256Z,973.61
2023-01-05T10:51:34.221Z,973.49
2023-01-05T10:52:34.226Z,973.43
2023-01-05T10:53:34.162Z,973.42
2023-01-05T10:54:34.115Z,973.40
2023-01-05T10:55:34.041Z,973.40
2023-01-05T10:56:33.999Z,973.38
2023-01-05T10:57:36.509Z,973.39
2023-01-05T10:58:33.911Z,973.37
2023-01-05T10:59:33.975Z,973.37
2023-01-05T11:00:33.826Z,973.37
2023-01-05T11:01:33.912Z,973.37
2023-01-05T11:02:33.835Z,973.30
2023-01-05T11:04:04.267Z,973.30
2023-01-05T11:04:35.498Z,973.34
2023-01-05T11:05:33.762Z,973.30
2023-01-05T11:06:33.595Z,973.30
2023-01-05T11:07:33.530Z,973.32
2023-01-05T11:08:33.486Z,973.33
2023-01-05T11:09:33.460Z,973.33
2023-01-05T11:10:33.400Z,973.31
2023-01-05T11:11:33.385Z,973.37
2023-01-05T11:12:33.314Z,973.32
2023-01-05T11:13:33.275Z,973.36
2023-01-05T11:14:33.228Z,973.35
2023-01-05T11:15:33.224Z,973.32
2023-01-05T11:16:33.142Z,973.38
2023-01-05T11:17:33.142Z,973.40
2023-01-05T11:18:33.062Z,973.34
2023-01-05T11:19:33.014Z,973.31
2023-01-05T11:20:32.971Z,973.32
2023-01-05T11:21:32.927Z,973.29
2023-01-05T11:22:32.885Z,973.29
2023-01-05T11:23:32.866Z,973.29
2023-01-05T11:24:32.805Z,973.33
2023-01-05T11:25:32.755Z,973.33
2023-01-05T11:26:32.714Z,973.32
2023-01-05T11:27:32.668Z,973.31
2023-01-05T11:28:32.625Z,973.24
2023-01-05T11:29:32.611Z,973.28
2023-01-05T11:30:32.533Z,973.22
2023-01-05T11:31:32.517Z,973.29
2023-01-05T11:32:32.454Z,973.28
2023-01-05T11:33:32.436Z,973.22
2023-01-05T11:34:32.367Z,973.21
2023-01-05T11:35:32.334Z,973.30
2023-01-05T11:36:32.278Z,973.29
2023-01-05T11:37:32.231Z,973.29
2023-01-05T11:38:32.189Z,973.25
2023-01-05T11:39:32.168Z,973.25
2023-01-05T11:40:32.098Z,973.24
2023-01-05T11:41:32.062Z,973.20
2023-01-05T11:42:32.053Z,973.27
2023-01-05T11:43:31.970Z,973.20
2023-01-05T11:44:31.924Z,973.19
2023-01-05T11:45:31.912Z,973.19
2023-01-05T11:46:31.850Z,973.19
2023-01-05T11:47:32.777Z,973.14
2023-01-05T11:48:31.753Z,973.12
2023-01-05T11:49:31.704Z,973.18
2023-01-05T11:50:31.668Z,973.09
2023-01-05T11:51:31.632Z,973.07
2023-01-05T11:52:31.570Z,973.05
2023-01-05T11:53:31.536Z,973.09
2023-01-05T11:54:31.481Z,973.05
2023-01-05T11:55:31.451Z,973.01
2023-01-05T11:56:31.393Z,972.94
2023-01-05T11:57:31.373Z,972.98
2023-01-05T11:58:31.308Z,973.00
2023-01-05T11:59:31.265Z,973.00
2023-01-05T12:00:31.230Z,972.97
2023-01-05T12:01:31.215Z,973.02
2023-01-05T12:02:31.200Z,972.95
2023-01-05T12:03:31.135Z,972.97
2023-01-05T12:04:31.099Z,972.96
2023-01-05T12:05:31.050Z,972.95
2023-01-05T12:06:30.958Z,972.94
2023-01-05T12:07:30.916Z,972.95
2023-01-05T12:08:30.871Z,972.93
2023-01-05T12:09:34.693Z,972.89
2023-01-05T12:10:30.797Z,972.89
2023-01-05T12:11:30.777Z,972.88
2023-01-05T12:12:30.702Z,972.92
2023-01-05T12:13:30.651Z,972.93
2023-01-05T12:14:30.609Z,972.95
2023-01-05T12:15:30.553Z,972.91
2023-01-05T12:16:30.558Z,972.93
2023-01-05T12:17:30.482Z,972.95
2023-01-05T12:18:30.430Z,973.00
2023-01-05T12:19:30.376Z,972.94
2023-01-05T12:20:30.342Z,972.90
2023-01-05T12:21:30.290Z,972.96
2023-01-05T12:22:30.249Z,972.96
2023-01-05T12:23:30.242Z,973.02
2023-01-05T12:24:30.184Z,973.05
2023-01-05T12:25:30.134Z,972.97
2023-01-05T12:26:30.080Z,973.00
2023-01-05T12:27:30.033Z,973.00
2023-01-05T12:28:40.951Z,973.00
2023-01-05T12:34:29.720Z,972.90
2023-01-05T12:35:29.700Z,972.86
2023-01-05T12:36:29.706Z,972.87
2023-01-05T12:37:29.587Z,972.85
2023-01-05T12:38:29.554Z,972.87
2023-01-05T12:39:31.973Z,972.86
2023-01-05T12:40:29.456Z,972.79
2023-01-05T12:41:29.438Z,972.86
2023-01-05T12:42:29.364Z,972.84
2023-01-05T12:43:29.322Z,972.92
2023-01-05T12:44:29.279Z,972.81
2023-01-05T12:45:32.009Z,972.83
2023-01-05T12:46:29.250Z,972.88
2023-01-05T12:47:29.156Z,972.84
2023-01-05T12:48:29.104Z,972.87
2023-01-05T12:49:29.067Z,972.82
2023-01-05T12:50:29.019Z,972.84
2023-01-05T12:51:28.971Z,972.83
2023-01-05T12:52:29.018Z,972.86
2023-01-05T12:53:28.880Z,972.85
2023-01-05T12:54:28.852Z,972.83
2023-01-05T12:55:28.803Z,972.82
2023-01-05T12:56:28.786Z,972.81
2023-01-05T12:57:28.704Z,972.81
2023-01-05T12:58:28.689Z,972.80
2023-01-05T12:59:28.628Z,972.81
2023-01-05T13:00:28.631Z,972.81
2023-01-05T13:01:28.703Z,972.84
2023-01-05T13:02:28.673Z,972.84
2023-01-05T13:03:28.441Z,972.89
2023-01-05T13:04:32.621Z,972.88
2023-01-05T13:05:28.350Z,972.82
2023-01-05T13:06:28.309Z,972.85
2023-01-05T13:07:28.284Z,972.85
2023-01-05T13:08:28.235Z,972.91
2023-01-05T13:09:28.181Z,972.93
2023-01-05T13:10:28.142Z,972.85
2023-01-05T13:11:28.110Z,972.91
2023-01-05T13:12:28.049Z,972.85
2023-01-05T13:13:28.034Z,972.86
2023-01-05T13:14:27.970Z,972.80
2023-01-05T13:15:27.923Z,972.81
2023-01-05T13:16:27.965Z,972.79
2023-01-05T13:17:27.835Z,972.77
2023-01-05T13:18:27.813Z,972.79
2023-01-05T13:19:27.746Z,972.74
2023-01-05T13:20:27.706Z,972.78
2023-01-05T13:21:27.669Z,972.75
2023-01-05T13:22:27.616Z,972.74
2023-01-05T13:23:27.576Z,972.72
2023-01-05T13:24:27.568Z,972.70
2023-01-05T13:25:27.504Z,972.75
2023-01-05T13:26:29.379Z,972.67
2023-01-05T13:27:27.400Z,972.73
2023-01-05T13:28:29.700Z,972.73
2023-01-05T13:29:27.325Z,972.67
2023-01-05T13:30:27.306Z,972.80
2023-01-05T13:31:27.265Z,972.76
2023-01-05T13:32:27.188Z,972.71
2023-01-05T13:33:27.214Z,972.81
2023-01-05T13:34:27.099Z,972.76
2023-01-05T13:35:27.059Z,972.75
2023-01-05T13:36:27.020Z,972.79
2023-01-05T13:37:26.975Z,972.75
2023-01-05T13:38:26.929Z,972.87
2023-01-05T13:39:26.913Z,972.80
2023-01-05T13:40:26.844Z,972.81
2023-01-05T13:41:26.801Z,972.79
2023-01-05T13:42:26.763Z,972.78
2023-01-05T13:43:26.733Z,972.87
2023-01-05T13:44:26.676Z,972.80
2023-01-05T13:45:26.651Z,972.79
2023-01-05T13:46:26.650Z,972.82
2023-01-05T13:47:27.983Z,972.76
2023-01-05T13:48:34.094Z,972.78
2023-01-05T13:49:26.458Z,972.80
2023-01-05T13:50:26.419Z,972.75
2023-01-05T13:51:26.385Z,972.70
2023-01-05T13:52:26.328Z,972.69
2023-01-05T13:53:26.316Z,972.70
2023-01-05T13:54:26.914Z,972.76
2023-01-05T13:55:26.714Z,972.74
2023-01-05T13:56:26.155Z,972.72
2023-01-05T13:57:26.210Z,972.74
2023-01-05T13:58:26.348Z,972.72
2023-01-05T13:59:35.035Z,972.71
2023-01-05T14:00:26.023Z,972.73
2023-01-05T14:01:25.963Z,972.75
2023-01-05T14:02:25.913Z,972.71
2023-01-05T14:03:25.880Z,972.67
2023-01-05T14:04:25.812Z,972.67
2023-01-05T14:05:25.773Z,972.68
2023-01-05T14:06:25.729Z,972.70
2023-01-05T14:07:25.717Z,972.71
2023-01-05T14:08:25.638Z,972.71
2023-01-05T14:09:25.657Z,972.71
2023-01-05T14:10:25.555Z,972.79
2023-01-05T14:11:25.510Z,972.74
2023-01-05T14:12:25.486Z,972.76
2023-01-05T14:13:25.428Z,972.72
2023-01-05T14:14:25.378Z,972.71
2023-01-05T14:15:25.375Z,972.69
2023-01-05T14:16:25.365Z,972.65
2023-01-05T14:17:25.260Z,972.63
2023-01-05T14:18:25.208Z,972.64
2023-01-05T14:19:25.180Z,972.62
2023-01-05T14:20:25.122Z,972.64
2023-01-05T14:21:25.118Z,972.62
2023-01-05T14:22:25.053Z,972.65
2023-01-05T14:23:25.004Z,972.64
2023-01-05T14:24:24.949Z,972.66
2023-01-05T14:25:24.910Z,972.62
2023-01-05T14:26:25.170Z,972.71
2023-01-05T14:27:24.816Z,972.69
2023-01-05T14:28:24.779Z,972.74
2023-01-05T14:29:24.732Z,972.73
2023-01-05T14:30:24.699Z,972.74
2023-01-05T14:31:24.683Z,972.73
2023-01-05T14:32:24.632Z,972.74
2023-01-05T14:33:24.560Z,972.66
2023-01-05T14:34:24.546Z,972.73
2023-01-05T14:35:24.477Z,972.73
2023-01-05T14:36:24.435Z,972.70
2023-01-05T14:37:24.388Z,972.71
2023-01-05T14:38:24.347Z,972.68
2023-01-05T14:39:24.333Z,972.70
2023-01-05T14:40:24.269Z,972.72
2023-01-05T14:41:26.714Z,972.75
2023-01-05T14:42:24.169Z,972.71
2023-01-05T14:43:24.139Z,972.69
2023-01-05T14:44:24.087Z,972.71
2023-01-05T14:45:24.125Z,972.77
2023-01-05T14:46:23.994Z,972.74
2023-01-05T14:47:23.956Z,972.74
2023-01-05T14:48:23.913Z,972.77
2023-01-05T14:49:23.871Z,972.77
2023-01-05T14:50:23.820Z,972.76
2023-01-05T14:51:23.868Z,972.73
2023-01-05T14:52:23.738Z,972.77
2023-01-05T14:53:23.692Z,972.74
2023-01-05T14:54:23.646Z,972.71
2023-01-05T14:55:37.300Z,972.76
2023-01-05T14:56:23.563Z,972.75
2023-01-05T14:57:23.541Z,972.73
2023-01-05T14:58:23.478Z,972.72
2023-01-05T14:59:23.491Z,972.78
2023-01-05T15:00:23.396Z,972.72
2023-01-05T15:01:23.349Z,972.74
2023-01-05T15:02:23.305Z,972.85
2023-01-05T15:03:23.305Z,972.82
2023-01-05T15:04:23.213Z,972.84
2023-01-05T15:05:23.189Z,972.82
2023-01-05T15:06:23.123Z,972.83
2023-01-05T15:07:23.313Z,972.83
2023-01-05T15:08:23.037Z,972.84
2023-01-05T15:09:23.029Z,972.80
2023-01-05T15:10:22.953Z,972.82
2023-01-05T15:11:22.910Z,972.81
2023-01-05T15:12:22.868Z,972.81
2023-01-05T15:13:22.822Z,972.79
2023-01-05T15:14:22.776Z,972.80
2023-01-05T15:15:22.760Z,972.79
2023-01-05T15:16:22.701Z,972.82
2023-01-05T15:17:22.642Z,972.84
2023-01-05T15:18:22.635Z,972.81
2023-01-05T15:19:22.555Z,972.82
2023-01-05T15:20:22.516Z,972.81
2023-01-05T15:21:22.506Z,972.79
2023-01-05T15:22:37.165Z,972.82
2023-01-05T15:23:22.384Z,972.81
2023-01-05T15:24:22.346Z,972.83
2023-01-05T15:25:22.294Z,972.81
2023-01-05T15:26:22.255Z,972.81
2023-01-05T15:27:22.231Z,972.79
2023-01-05T15:28:22.165Z,972.81
2023-01-05T15:29:22.126Z,972.81
2023-01-05T15:30:22.073Z,972.78
2023-01-05T15:31:22.065Z,972.74
2023-01-05T15:32:21.986Z,972.73
2023-01-05T15:33:21.975Z,972.74
2023-01-05T15:34:21.896Z,972.71
2023-01-05T15:35:21.859Z,972.76
2023-01-05T15:36:21.817Z,972.76
2023-01-05T15:37:21.766Z,972.76
2023-01-05T15:38:21.729Z,972.70
2023-01-05T15:39:21.720Z,972.70
2023-01-05T15:40:21.800Z,972.73
2023-01-05T15:41:21.602Z,972.72
2023-01-05T15:42:22.077Z,972.77
2023-01-05T15:43:21.498Z,972.78
2023-01-05T15:44:21.455Z,972.76
2023-01-05T15:45:21.411Z,972.76
2023-01-05T15:46:21.386Z,972.80
2023-01-05T15:47:21.321Z,972.78
2023-01-05T15:48:21.279Z,972.82
2023-01-05T15:49:21.234Z,972.80
2023-01-05T15:50:21.195Z,972.84
2023-01-05T15:51:21.148Z,972.89
2023-01-05T15:52:21.121Z,972.90
2023-01-05T15:53:21.070Z,972.87
2023-01-05T15:54:21.013Z,972.86
2023-01-05T15:55:20.966Z,972.86
2023-01-05T15:56:20.923Z,972.84
2023-01-05T15:57:20.899Z,972.84
2023-01-05T15:58:20.979Z,972.85
2023-01-05T15:59:20.787Z,972.88
2023-01-05T16:00:20.747Z,972.86
2023-01-05T16:01:20.843Z,972.76
2023-01-05T16:02:20.693Z,972.79
2023-01-05T16:03:20.622Z,972.80
2023-01-05T16:04:20.596Z,972.78
2023-01-05T16:05:20.525Z,972.82
2023-01-05T16:06:20.488Z,972.78
2023-01-05T16:07:20.435Z,972.76
2023-01-05T16:08:20.398Z,972.78
2023-01-05T16:09:20.352Z,972.79
2023-01-05T16:10:20.316Z,972.83
2023-01-05T16:11:20.273Z,972.84
2023-01-05T16:12:20.211Z,972.81
2023-01-05T16:13:20.178Z,972.85
2023-01-05T16:14:20.128Z,972.86
2023-01-05T16:15:20.097Z,972.88
2023-01-05T16:16:49.546Z,972.92
2023-01-05T16:17:20.093Z,972.90
2023-01-05T16:18:19.951Z,972.88
2023-01-05T16:19:19.906Z,972.91
2023-01-05T16:20:19.901Z,972.86
2023-01-05T16:21:19.816Z,972.86
2023-01-05T16:22:19.780Z,972.84
2023-01-05T16:23:19.735Z,972.84
2023-01-05T16:24:19.681Z,972.86
2023-01-05T16:25:19.647Z,972.87
2023-01-05T16:26:19.621Z,972.89
2023-01-05T16:27:19.571Z,972.90
2023-01-05T16:28:19.509Z,972.87
2023-01-05T16:29:19.471Z,972.92
2023-01-05T16:30:19.423Z,972.88
2023-01-05T16:31:19.399Z,972.87
2023-01-05T16:32:19.335Z,972.90
2023-01-05T16:33:19.299Z,972.82
2023-01-05T16:34:19.265Z,972.85
2023-01-05T16:35:19.214Z,972.81
2023-01-05T16:36:19.154Z,972.81
2023-01-05T16:37:19.124Z,972.87
2023-01-05T16:38:19.075Z,972.85
2023-01-05T16:39:19.021Z,972.83
2023-01-05T16:40:19.007Z,972.85
2023-01-05T16:41:18.935Z,972.84
2023-01-05T16:42:18.893Z,972.83
2023-01-05T16:43:18.864Z,972.87
2023-01-05T16:44:18.806Z,972.89
2023-01-05T16:45:18.754Z,972.87
2023-01-05T16:46:20.543Z,972.91
2023-01-05T16:47:18.666Z,972.90
2023-01-05T16:48:18.623Z,972.96
2023-01-05T16:49:18.599Z,972.95
2023-01-05T16:50:18.531Z,972.99
2023-01-05T16:51:18.489Z,972.96
2023-01-05T16:52:23.420Z,972.95
2023-01-05T16:53:18.397Z,972.98
2023-01-05T16:54:20.792Z,972.98
2023-01-05T16:55:23.641Z,972.95
2023-01-05T16:56:18.272Z,972.94
2023-01-05T16:57:18.229Z,972.92
2023-01-05T16:58:18.300Z,972.97
2023-01-05T16:59:18.138Z,972.94
2023-01-05T17:00:18.255Z,972.90
2023-01-05T17:01:18.120Z,972.86
2023-01-05T17:02:18.002Z,972.88
2023-01-05T17:03:17.966Z,972.86
2023-01-05T17:04:17.936Z,972.87
2023-01-05T17:05:17.877Z,972.90
2023-01-05T17:06:17.850Z,972.89
2023-01-05T17:07:19.997Z,972.85
2023-01-05T17:08:17.737Z,972.89
2023-01-05T17:09:17.714Z,972.88
2023-01-05T17:10:17.668Z,972.89
2023-01-05T17:11:17.613Z,972.89
2023-01-05T17:12:17.592Z,972.86
2023-01-05T17:13:19.673Z,972.86
2023-01-05T17:14:17.472Z,972.87
2023-01-05T17:15:17.431Z,972.85
2023-01-05T17:16:17.459Z,972.84
2023-01-05T17:18:17.357Z,972.87
2023-01-05T17:19:17.254Z,972.87
2023-01-05T17:20:17.211Z,972.87
2023-01-05T17:21:17.172Z,972.80
2023-01-05T17:22:17.143Z,972.82
2023-01-05T17:23:17.082Z,972.79
2023-01-05T17:24:17.047Z,972.81
2023-01-05T17:25:16.992Z,972.83
2023-01-05T17:26:16.946Z,972.82
2023-01-05T17:27:16.910Z,972.82
2023-01-05T17:28:16.857Z,972.84
2023-01-05T17:29:16.811Z,972.85
2023-01-05T17:30:16.797Z,972.85
2023-01-05T17:31:16.755Z,972.86
2023-01-05T17:32:16.681Z,972.89
2023-01-05T17:33:16.663Z,972.90
2023-01-05T17:34:16.606Z,972.90
2023-01-05T17:35:18.693Z,972.93
2023-01-05T17:36:16.506Z,972.91
2023-01-05T17:37:16.468Z,972.88
2023-01-05T17:38:16.422Z,972.88
2023-01-05T17:39:16.372Z,972.81
2023-01-05T17:40:16.431Z,972.79
2023-01-05T17:41:17.138Z,972.77
2023-01-05T17:42:16.246Z,972.80
2023-01-05T17:43:16.199Z,972.73
2023-01-05T17:44:16.153Z,972.78
2023-01-05T17:45:16.119Z,972.76
2023-01-05T17:46:16.141Z,972.76
2023-01-05T17:47:16.024Z,972.75
2023-01-05T17:48:16.390Z,972.70
2023-01-05T17:49:15.943Z,972.69
2023-01-05T17:50:15.898Z,972.70
2023-01-05T17:51:15.845Z,972.69
2023-01-05T17:52:15.821Z,972.73
2023-01-05T17:53:15.749Z,972.71
2023-01-05T17:54:15.714Z,972.71
2023-01-05T17:55:15.666Z,972.74
2023-01-05T17:56:16.376Z,972.73
2023-01-05T17:57:15.573Z,972.72
2023-01-05T17:58:15.539Z,972.72
2023-01-05T17:59:15.495Z,972.71
2023-01-05T18:00:15.642Z,972.69
2023-01-05T18:01:15.398Z,972.68
2023-01-05T18:02:15.422Z,972.69
2023-01-05T18:03:15.309Z,972.69
2023-01-05T18:04:15.263Z,972.67
2023-01-05T18:05:15.267Z,972.62
2023-01-05T18:06:15.174Z,972.67
2023-01-05T18:07:15.140Z,972.63
2023-01-05T18:08:15.113Z,972.63
2023-01-05T18:09:15.042Z,972.61
2023-01-05T18:10:15.008Z,972.62
2023-01-05T18:11:16.429Z,972.65
2023-01-05T18:12:14.917Z,972.64
2023-01-05T18:13:15.821Z,972.63
2023-01-05T18:14:14.842Z,972.61
2023-01-05T18:15:14.788Z,972.55
2023-01-05T18:16:14.735Z,972.59
2023-01-05T18:17:14.689Z,972.59
2023-01-05T18:18:14.648Z,972.60
2023-01-05T18:20:15.158Z,972.60
2023-01-05T18:21:14.511Z,972.61
2023-01-05T18:22:14.466Z,972.58
2023-01-05T18:23:14.423Z,972.64
2023-01-05T18:24:14.382Z,972.59
2023-01-05T18:25:14.335Z,972.58
2023-01-05T18:26:14.309Z,972.55
2023-01-05T18:27:14.264Z,972.53
2023-01-05T18:28:14.199Z,972.54
2023-01-05T18:29:14.158Z,972.53
2023-01-05T18:30:14.120Z,972.54
2023-01-05T18:31:14.074Z,972.51
2023-01-05T18:32:14.066Z,972.56
2023-01-05T18:33:14.001Z,972.54
2023-01-05T18:34:13.939Z,972.54
2023-01-05T18:35:13.897Z,972.56
2023-01-05T18:36:14.174Z,972.52
2023-01-05T18:37:21.530Z,972.53
2023-01-05T18:38:13.784Z,972.54
2023-01-05T18:39:13.737Z,972.52